sensor_id;sensor_type;location;lat;lon;timestamp;pressure;altitude;pressure_sealevel;temperature;humidity
9281;BME280;4679;47.966;7.958;2023-02-23T06:41:22;96776.44;;;8.10;87.57
9281;BME280;4679;47.966;7.958;2023-02-23T06:43:24;96774.38;;;8.12;87.63
9281;BME280;4679;47.966;7.958;2023-02-23T06:45:26;96766.19;;;8.14;87.37
9281;BME280;4679;47.966;7.958;2023-02-23T06:47:28;96776.53;;;8.16;87.32
9281;BME280;4679;47.966;7.958;2023-02-23T06:49:29;96768.38;;;8.17;87.63
9281;BME280;4679;47.966;7.958;2023-02-23T06:51:31;96770.00;;;8.18;87.30
9281;BME280;4679;47.966;7.958;2023-02-23T06:53:33;96784.56;;;8.21;87.01
9281;BME280;4679;47.966;7.958;2023-02-23T06:55:34;96780.88;;;8.22;87.58
9281;BME280;4679;47.966;7.958;2023-02-23T06:57:37;96795.38;;;8.19;87.23
9281;BME280;4679;47.966;7.958;2023-02-23T06:59:40;96789.53;;;8.17;87.78
9281;BME280;4679;47.966;7.958;2023-02-23T07:01:42;96787.69;;;8.18;87.19
9281;BME280;4679;47.966;7.958;2023-02-23T07:03:44;96794.00;;;8.17;87.52
9281;BME280;4679;47.966;7.958;2023-02-23T07:05:46;96799.53;;;8.15;87.63
9281;BME280;4679;47.966;7.958;2023-02-23T07:07:47;96786.41;;;8.20;87.86
9281;BME280;4679;47.966;7.958;2023-02-23T07:09:49;96799.59;;;8.32;86.89
9281;BME280;4679;47.966;7.958;2023-02-23T07:11:51;96793.03;;;8.34;87.27
9281;BME280;4679;47.966;7.958;2023-02-23T07:13:56;96795.91;;;8.33;87.07
9281;BME280;4679;47.966;7.958;2023-02-23T07:15:58;96808.78;;;8.29;87.36
9281;BME280;4679;47.966;7.958;2023-02-23T07:17:59;96802.91;;;8.27;87.43
9281;BME280;4679;47.966;7.958;2023-02-23T07:20:01;96807.16;;;8.28;87.13
9281;BME280;4679;47.966;7.958;2023-02-23T07:22:03;96808.34;;;8.32;87.44
9281;BME280;4679;47.966;7.958;2023-02-23T07:24:05;96800.75;;;8.36;87.03
9281;BME280;4679;47.966;7.958;2023-02-23T07:26:08;96802.13;;;8.38;87.28
9281;BME280;4679;47.966;7.958;2023-02-23T07:28:14;96807.69;;;8.42;87.19
9281;BME280;4679;47.966;7.958;2023-02-23T07:30:18;96800.56;;;8.42;86.88
9281;BME280;4679;47.966;7.958;2023-02-23T07:32:19;96803.78;;;8.44;87.11
9281;BME280;4679;47.966;7.958;2023-02-23T07:34:21;96804.34;;;8.46;87.28
9281;BME280;4679;47.966;7.958;2023-02-23T07:36:23;96807.34;;;8.50;87.67
9281;BME280;4679;47.966;7.958;2023-02-23T07:38:26;96808.72;;;8.53;87.09
9281;BME280;4679;47.966;7.958;2023-02-23T07:40:27;96803.19;;;8.54;87.17
9281;BME280;4679;47.966;7.958;2023-02-23T07:42:29;96809.59;;;8.58;87.03
9281;BME280;4679;47.966;7.958;2023-02-23T07:44:31;96800.59;;;8.59;86.93
9281;BME280;4679;47.966;7.958;2023-02-23T07:46:34;96805.09;;;8.59;87.17
9281;BME280;4679;47.966;7.958;2023-02-23T07:48:36;96805.09;;;8.59;87.06
9281;BME280;4679;47.966;7.958;2023-02-23T07:50:38;96803.81;;;8.61;87.20
9281;BME280;4679;47.966;7.958;2023-02-23T07:52:41;96808.31;;;8.61;86.92
9281;BME280;4679;47.966;7.958;2023-02-23T07:54:44;96809.91;;;8.62;86.69
9281;BME280;4679;47.966;7.958;2023-02-23T07:56:45;96803.34;;;8.64;87.06
9281;BME280;4679;47.966;7.958;2023-02-23T07:58:47;96808.41;;;8.66;86.92
9281;BME280;4679;47.966;7.958;2023-02-23T08:00:48;96799.19;;;8.68;86.89
9281;BME280;4679;47.966;7.958;2023-02-23T08:02:52;96802.94;;;8.72;86.78
9281;BME280;4679;47.966;7.958;2023-02-23T08:04:53;96804.06;;;8.76;86.72
9281;BME280;4679;47.966;7.958;2023-02-23T08:06:55;96804.66;;;8.78;86.96
9281;BME280;4679;47.966;7.958;2023-02-23T08:08:57;96808.66;;;8.81;86.77
9281;BME280;4679;47.966;7.958;2023-02-23T08:11:00;96810.84;;;8.84;87.03
9281;BME280;4679;47.966;7.958;2023-02-23T08:13:03;96807.44;;;8.89;86.84
9281;BME280;4679;47.966;7.958;2023-02-23T08:15:06;96808.00;;;8.91;86.73
9281;BME280;4679;47.966;7.958;2023-02-23T08:17:08;96809.63;;;8.92;86.54
9281;BME280;4679;47.966;7.958;2023-02-23T08:19:12;96816.84;;;8.96;86.52
9281;BME280;4679;47.966;7.958;2023-02-23T08:21:13;96819.81;;;9.00;86.96
9281;BME280;4679;47.966;7.958;2023-02-23T08:23:15;96819.06;;;9.04;86.58
9281;BME280;4679;47.966;7.958;2023-02-23T08:25:17;96818.94;;;9.11;86.57
9281;BME280;4679;47.966;7.958;2023-02-23T08:27:19;96818.22;;;9.15;86.13
9281;BME280;4679;47.966;7.958;2023-02-23T08:29:21;96812.41;;;9.18;86.51
9281;BME280;4679;47.966;7.958;2023-02-23T08:31:22;96808.00;;;9.24;86.47
9281;BME280;4679;47.966;7.958;2023-02-23T08:33:26;96810.19;;;9.27;86.41
9281;BME280;4679;47.966;7.958;2023-02-23T08:35:29;96819.25;;;9.31;86.10
9281;BME280;4679;47.966;7.958;2023-02-23T08:37:31;96818.16;;;9.32;86.47
9281;BME280;4679;47.966;7.958;2023-02-23T08:39:33;96817.69;;;9.35;85.90
9281;BME280;4679;47.966;7.958;2023-02-23T08:41:35;96822.75;;;9.37;86.22
9281;BME280;4679;47.966;7.958;2023-02-23T08:43:36;96813.53;;;9.39;86.32
9281;BME280;4679;47.966;7.958;2023-02-23T08:45:39;96814.88;;;9.42;86.23
9281;BME280;4679;47.966;7.958;2023-02-23T08:47:40;96812.00;;;9.43;85.78
9281;BME280;4679;47.966;7.958;2023-02-23T08:49:42;96816.00;;;9.46;86.70
9281;BME280;4679;47.966;7.958;2023-02-23T08:51:45;96815.25;;;9.50;85.66
9281;BME280;4679;47.966;7.958;2023-02-23T08:53:47;96821.91;;;9.53;86.24
9281;BME280;4679;47.966;7.958;2023-02-23T08:55:48;96807.16;;;9.57;85.62
9281;BME280;4679;47.966;7.958;2023-02-23T08:57:51;96816.47;;;9.60;85.62
9281;BME280;4679;47.966;7.958;2023-02-23T08:59:52;96812.53;;;9.62;85.66
9281;BME280;4679;47.966;7.958;2023-02-23T09:01:54;96818.69;;;9.68;85.55
9281;BME280;4679;47.966;7.958;2023-02-23T09:03:56;96817.72;;;9.74;86.00
9281;BME280;4679;47.966;7.958;2023-02-23T09:06:04;96815.91;;;9.79;85.65
9281;BME280;4679;47.966;7.958;2023-02-23T09:08:08;96816.63;;;9.92;84.97
9281;BME280;4679;47.966;7.958;2023-02-23T09:10:11;96812.78;;;10.04;84.56
9281;BME280;4679;47.966;7.958;2023-02-23T09:12:13;96817.16;;;10.15;85.06
9281;BME280;4679;47.966;7.958;2023-02-23T09:14:15;96813.81;;;10.25;85.41
9281;BME280;4679;47.966;7.958;2023-02-23T09:16:17;96815.75;;;10.30;84.88
9281;BME280;4679;47.966;7.958;2023-02-23T09:18:19;96820.81;;;10.31;84.74
9281;BME280;4679;47.966;7.958;2023-02-23T09:20:23;96821.91;;;10.35;85.08
9281;BME280;4679;47.966;7.958;2023-02-23T09:22:26;96820.09;;;10.41;84.97
9281;BME280;4679;47.966;7.958;2023-02-23T09:24:29;96823.13;;;10.49;84.80
9281;BME280;4679;47.966;7.958;2023-02-23T09:26:32;96821.84;;;10.57;83.95
9281;BME280;4679;47.966;7.958;2023-02-23T09:28:39;96814.75;;;10.63;84.52
9281;BME280;4679;47.966;7.958;2023-02-23T09:30:41;96820.13;;;10.68;83.85
9281;BME280;4679;47.966;7.958;2023-02-23T09:32:44;96815.34;;;10.70;84.37
9281;BME280;4679;47.966;7.958;2023-02-23T09:34:45;96812.19;;;10.73;84.18
9281;BME280;4679;47.966;7.958;2023-02-23T09:36:47;96818.59;;;10.77;83.25
9281;BME280;4679;47.966;7.958;2023-02-23T09:38:52;96817.38;;;10.89;83.89
9281;BME280;4679;47.966;7.958;2023-02-23T09:40:57;96814.84;;;11.00;83.81
9281;BME280;4679;47.966;7.958;2023-02-23T09:43:01;96814.91;;;11.10;83.73
9281;BME280;4679;47.966;7.958;2023-02-23T09:45:18;96817.91;;;11.23;82.62
9281;BME280;4679;47.966;7.958;2023-02-23T09:47:30;96819.03;;;11.27;83.28
9281;BME280;4679;47.966;7.958;2023-02-23T09:49:36;96817.19;;;11.33;83.34
9281;BME280;4679;47.966;7.958;2023-02-23T09:51:41;96818.84;;;11.39;81.89
9281;BME280;4679;47.966;7.958;2023-02-23T09:53:48;96817.00;;;11.45;82.63
9281;BME280;4679;47.966;7.958;2023-02-23T09:55:53;96811.72;;;11.50;82.55
9281;BME280;4679;47.966;7.958;2023-02-23T09:58:03;96814.16;;;11.56;82.25
9281;BME280;4679;47.966;7.958;2023-02-23T10:00:16;96812.56;;;11.55;82.00
9281;BME280;4679;47.966;7.958;2023-02-23T10:02:22;96814.75;;;11.69;81.43
9281;BME280;4679;47.966;7.958;2023-02-23T10:04:31;96811.94;;;11.85;82.07
9281;BME280;4679;47.966;7.958;2023-02-23T10:06:34;96807.25;;;12.03;81.54
9281;BME280;4679;47.966;7.958;2023-02-23T10:08:45;96814.72;;;12.16;80.79
9281;BME280;4679;47.966;7.958;2023-02-23T10:10:53;96806.25;;;12.29;80.61
9281;BME280;4679;47.966;7.958;2023-02-23T10:13:03;96813.22;;;12.55;80.08
9281;BME280;4679;47.966;7.958;2023-02-23T10:15:14;96809.78;;;12.60;80.07
9281;BME280;4679;47.966;7.958;2023-02-23T10:17:24;96817.22;;;12.53;80.23
9281;BME280;4679;47.966;7.958;2023-02-23T10:19:36;96809.47;;;12.36;80.54
9281;BME280;4679;47.966;7.958;2023-02-23T10:21:46;96810.47;;;12.15;80.62
9281;BME280;4679;47.966;7.958;2023-02-23T10:23:55;96806.75;;;12.16;80.51
9281;BME280;4679;47.966;7.958;2023-02-23T10:26:01;96802.78;;;12.23;80.49
9281;BME280;4679;47.966;7.958;2023-02-23T10:28:05;96806.81;;;12.36;79.25
9281;BME280;4679;47.966;7.958;2023-02-23T10:30:18;96806.53;;;12.32;79.24
9281;BME280;4679;47.966;7.958;2023-02-23T10:32:23;96804.44;;;12.35;79.78
9281;BME280;4679;47.966;7.958;2023-02-23T10:34:26;96803.88;;;12.38;79.27
9281;BME280;4679;47.966;7.958;2023-02-23T10:36:34;96799.63;;;12.31;79.43
9281;BME280;4679;47.966;7.958;2023-02-23T10:38:36;96800.13;;;12.23;79.23
9281;BME280;4679;47.966;7.958;2023-02-23T10:40:38;96799.31;;;12.18;79.98
9281;BME280;4679;47.966;7.958;2023-02-23T10:42:40;96800.13;;;12.18;79.73
9281;BME280;4679;47.966;7.958;2023-02-23T10:44:44;96796.69;;;12.33;78.69
9281;BME280;4679;47.966;7.958;2023-02-23T10:46:50;96787.44;;;12.61;78.12
9281;BME280;4679;47.966;7.958;2023-02-23T10:48:54;96787.44;;;12.86;77.61
9281;BME280;4679;47.966;7.958;2023-02-23T10:50:57;96786.91;;;13.04;77.27
9281;BME280;4679;47.966;7.958;2023-02-23T10:53:10;96794.91;;;13.30;76.76
9281;BME280;4679;47.966;7.958;2023-02-23T10:55:26;96791.69;;;13.48;76.70
9281;BME280;4679;47.966;7.958;2023-02-23T10:57:31;96789.81;;;13.49;76.20
9281;BME280;4679;47.966;7.958;2023-02-23T10:59:34;96790.84;;;13.73;75.80
9281;BME280;4679;47.966;7.958;2023-02-23T11:01:38;96782.59;;;13.69;75.30
9281;BME280;4679;47.966;7.958;2023-02-23T11:03:45;96783.97;;;13.57;75.47
9281;BME280;4679;47.966;7.958;2023-02-23T11:05:51;96784.19;;;13.65;75.10
9281;BME280;4679;47.966;7.958;2023-02-23T11:08:08;96786.00;;;13.85;74.87
9281;BME280;4679;47.966;7.958;2023-02-23T11:10:27;96786.56;;;13.77;74.78
9281;BME280;4679;47.966;7.958;2023-02-23T11:12:35;96782.63;;;13.49;74.95
9281;BME280;4679;47.966;7.958;2023-02-23T11:14:38;96781.63;;;13.20;75.45
9281;BME280;4679;47.966;7.958;2023-02-23T11:16:41;96786.69;;;13.21;75.33
9281;BME280;4679;47.966;7.958;2023-02-23T11:18:50;96789.06;;;13.38;74.51
9281;BME280;4679;47.966;7.958;2023-02-23T11:20:54;96781.59;;;13.35;74.68
9281;BME280;4679;47.966;7.958;2023-02-23T11:22:56;96788.53;;;13.41;74.71
9281;BME280;4679;47.966;7.958;2023-02-23T11:24:59;96783.94;;;13.67;73.74
9281;BME280;4679;47.966;7.958;2023-02-23T11:27:05;96779.63;;;13.76;73.66
9281;BME280;4679;47.966;7.958;2023-02-23T11:29:15;96777.28;;;13.59;73.81
9281;BME280;4679;47.966;7.958;2023-02-23T11:31:27;96773.59;;;13.40;74.22
9281;BME280;4679;47.966;7.958;2023-02-23T11:33:33;96773.88;;;13.33;74.30
9281;BME280;4679;47.966;7.958;2023-02-23T11:35:37;96775.47;;;13.29;73.87
9281;BME280;4679;47.966;7.958;2023-02-23T11:37:38;96771.50;;;13.22;74.76
9281;BME280;4679;47.966;7.958;2023-02-23T11:39:50;96772.56;;;13.26;73.83
9281;BME280;4679;47.966;7.958;2023-02-23T11:42:19;96769.88;;;13.31;74.16
9281;BME280;4679;47.966;7.958;2023-02-23T11:44:22;96769.59;;;13.32;74.10
9281;BME280;4679;47.966;7.958;2023-02-23T11:46:25;96766.41;;;13.30;73.89
9281;BME280;4679;47.966;7.958;2023-02-23T11:48:33;96764.28;;;13.22;74.00
9281;BME280;4679;47.966;7.958;2023-02-23T11:50:36;96760.84;;;13.17;73.94
9281;BME280;4679;47.966;7.958;2023-02-23T11:52:42;96770.94;;;13.15;73.83
9281;BME280;4679;47.966;7.958;2023-02-23T11:54:49;96763.22;;;13.13;73.71
9281;BME280;4679;47.966;7.958;2023-02-23T11:56:53;96762.44;;;13.18;74.23
9281;BME280;4679;47.966;7.958;2023-02-23T11:59:00;96764.28;;;13.17;73.92
9281;BME280;4679;47.966;7.958;2023-02-23T12:01:05;96760.56;;;13.23;73.82
9281;BME280;4679;47.966;7.958;2023-02-23T12:03:19;96758.97;;;13.27;73.48
9281;BME280;4679;47.966;7.958;2023-02-23T12:05:25;96761.38;;;13.29;73.55
9281;BME280;4679;47.966;7.958;2023-02-23T12:07:35;96764.31;;;13.27;73.46
9281;BME280;4679;47.966;7.958;2023-02-23T12:09:42;96761.38;;;13.24;73.58
9281;BME280;4679;47.966;7.958;2023-02-23T12:11:50;96759.22;;;13.11;73.80
9281;BME280;4679;47.966;7.958;2023-02-23T12:13:58;96760.03;;;13.06;73.71
9281;BME280;4679;47.966;7.958;2023-02-23T12:16:06;96756.28;;;13.07;73.44
9281;BME280;4679;47.966;7.958;2023-02-23T12:18:18;96758.16;;;13.12;73.38
9281;BME280;4679;47.966;7.958;2023-02-23T12:20:30;96753.91;;;13.16;73.39
9281;BME280;4679;47.966;7.958;2023-02-23T12:22:38;96752.56;;;13.23;73.22
9281;BME280;4679;47.966;7.958;2023-02-23T12:24:43;96757.38;;;13.26;73.00
9281;BME280;4679;47.966;7.958;2023-02-23T12:26:50;96761.88;;;13.31;72.99
9281;BME280;4679;47.966;7.958;2023-02-23T12:28:56;96756.81;;;13.34;72.94
9281;BME280;4679;47.966;7.958;2023-02-23T12:31:19;96755.25;;;13.28;72.79
9281;BME280;4679;47.966;7.958;2023-02-23T12:33:26;96751.25;;;13.16;72.74
9281;BME280;4679;47.966;7.958;2023-02-23T12:35:41;96756.56;;;13.26;72.69
9281;BME280;4679;47.966;7.958;2023-02-23T12:37:48;96747.25;;;13.23;72.68
9281;BME280;4679;47.966;7.958;2023-02-23T12:39:56;96747.47;;;13.32;72.39
9281;BME280;4679;47.966;7.958;2023-02-23T12:42:04;96746.66;;;13.47;72.33
9281;BME280;4679;47.966;7.958;2023-02-23T12:44:13;96746.09;;;13.55;72.01
9281;BME280;4679;47.966;7.958;2023-02-23T12:46:25;96746.09;;;13.55;71.88
9281;BME280;4679;47.966;7.958;2023-02-23T12:48:32;96738.13;;;13.55;71.64
9281;BME280;4679;47.966;7.958;2023-02-23T12:50:39;96741.56;;;13.55;71.69
9281;BME280;4679;47.966;7.958;2023-02-23T12:52:47;96739.66;;;13.66;71.71
9281;BME280;4679;47.966;7.958;2023-02-23T12:54:50;96747.66;;;13.61;71.64
9281;BME280;4679;47.966;7.958;2023-02-23T12:56:58;96743.72;;;13.58;71.28
9281;BME280;4679;47.966;7.958;2023-02-23T12:59:32;96746.38;;;13.48;71.61
9281;BME280;4679;47.966;7.958;2023-02-23T13:01:42;96740.03;;;13.39;71.55
9281;BME280;4679;47.966;7.958;2023-02-23T13:04:06;96748.28;;;13.32;71.75
9281;BME280;4679;47.966;7.958;2023-02-23T13:06:19;96747.25;;;13.23;71.64
9281;BME280;4679;47.966;7.958;2023-02-23T13:08:30;96743.78;;;13.23;71.32
9281;BME280;4679;47.966;7.958;2023-02-23T13:10:41;96744.59;;;13.23;71.25
9281;BME280;4679;47.966;7.958;2023-02-23T13:12:55;96743.50;;;13.29;71.27
9281;BME280;4679;47.966;7.958;2023-02-23T13:15:07;96738.94;;;13.40;71.07
9281;BME280;4679;47.966;7.958;2023-02-23T13:17:26;96738.94;;;13.40;71.11
9281;BME280;4679;47.966;7.958;2023-02-23T13:19:35;96741.88;;;13.33;71.00
9281;BME280;4679;47.966;7.958;2023-02-23T13:21:46;96730.69;;;13.36;70.83
9281;BME280;4679;47.966;7.958;2023-02-23T13:23:55;96731.75;;;13.35;70.83
9281;BME280;4679;47.966;7.958;2023-02-23T13:26:05;96733.34;;;13.42;70.66
9281;BME280;4679;47.966;7.958;2023-02-23T13:28:15;96726.69;;;13.39;70.39
9281;BME280;4679;47.966;7.958;2023-02-23T13:30:18;96729.63;;;13.37;70.41
9281;BME280;4679;47.966;7.958;2023-02-23T13:32:23;96727.47;;;13.45;70.20
9281;BME280;4679;47.966;7.958;2023-02-23T13:34:27;96729.31;;;13.49;70.07
9281;BME280;4679;47.966;7.958;2023-02-23T13:36:31;96732.25;;;13.48;70.05
9281;BME280;4679;47.966;7.958;2023-02-23T13:38:41;96729.59;;;13.53;69.95
9281;BME280;4679;47.966;7.958;2023-02-23T13:40:49;96723.19;;;13.54;69.92
9281;BME280;4679;47.966;7.958;2023-02-23T13:43:00;96721.59;;;13.53;70.07
9281;BME280;4679;47.966;7.958;2023-02-23T13:45:23;96727.72;;;13.48;69.57
9281;BME280;4679;47.966;7.958;2023-02-23T13:47:35;96729.59;;;13.48;70.05
9281;BME280;4679;47.966;7.958;2023-02-23T13:49:47;96732.53;;;13.46;69.42
9281;BME280;4679;47.966;7.958;2023-02-23T13:51:54;96722.16;;;13.40;69.58
9281;BME280;4679;47.966;7.958;2023-02-23T13:54:02;96722.16;;;13.40;69.66
9281;BME280;4679;47.966;7.958;2023-02-23T13:56:08;96725.88;;;13.44;69.20
9281;BME280;4679;47.966;7.958;2023-02-23T13:58:13;96720.25;;;13.45;69.26
9281;BME280;4679;47.966;7.958;2023-02-23T14:00:18;96719.22;;;13.41;68.87
9281;BME280;4679;47.966;7.958;2023-02-23T14:02:33;96714.97;;;13.40;69.27
9281;BME280;4679;47.966;7.958;2023-02-23T14:04:38;96720.00;;;13.47;68.88
9281;BME280;4679;47.966;7.958;2023-02-23T14:06:51;96718.66;;;13.49;68.86
9281;BME280;4679;47.966;7.958;2023-02-23T14:08:58;96728.78;;;13.52;68.91
9281;BME280;4679;47.966;7.958;2023-02-23T14:11:02;96718.38;;;13.51;68.69
9281;BME280;4679;47.966;7.958;2023-02-23T14:13:23;96717.84;;;13.54;68.50
9281;BME280;4679;47.966;7.958;2023-02-23T14:15:41;96718.88;;;13.63;68.20
9281;BME280;4679;47.966;7.958;2023-02-23T14:17:54;96714.59;;;13.72;68.16
9281;BME280;4679;47.966;7.958;2023-02-23T14:20:05;96717.78;;;13.74;67.79
9281;BME280;4679;47.966;7.958;2023-02-23T14:22:15;96713.53;;;13.73;68.05
9281;BME280;4679;47.966;7.958;2023-02-23T14:24:22;96715.38;;;13.72;67.87
9281;BME280;4679;47.966;7.958;2023-02-23T14:26:41;96717.19;;;13.82;67.51
9281;BME280;4679;47.966;7.958;2023-02-23T14:28:45;96716.91;;;13.89;67.36
9281;BME280;4679;47.966;7.958;2023-02-23T14:30:59;96711.28;;;13.90;67.33
9281;BME280;4679;47.966;7.958;2023-02-23T14:33:01;96710.50;;;13.90;67.26
9281;BME280;4679;47.966;7.958;2023-02-23T14:37:33;96706.97;;;14.04;66.52
9281;BME280;4679;47.966;7.958;2023-02-23T14:39:35;96708.69;;;14.29;66.12
9281;BME280;4679;47.966;7.958;2023-02-23T14:41:44;96706.19;;;14.48;65.31
9281;BME280;4679;47.966;7.958;2023-02-23T14:43:51;96710.88;;;14.61;64.67
9281;BME280;4679;47.966;7.958;2023-02-23T14:45:54;96703.84;;;14.70;64.36
9281;BME280;4679;47.966;7.958;2023-02-23T14:47:57;96708.09;;;14.76;64.55
9281;BME280;4679;47.966;7.958;2023-02-23T14:50:02;96700.88;;;14.77;64.10
9281;BME280;4679;47.966;7.958;2023-02-23T14:52:06;96704.28;;;14.83;63.98
9281;BME280;4679;47.966;7.958;2023-02-23T14:54:20;96702.19;;;14.80;63.56
9281;BME280;4679;47.966;7.958;2023-02-23T14:56:23;96701.94;;;14.76;63.97
9281;BME280;4679;47.966;7.958;2023-02-23T14:58:27;96701.59;;;14.83;63.74
9281;BME280;4679;47.966;7.958;2023-02-23T15:00:40;96704.88;;;14.80;63.31
9281;BME280;4679;47.966;7.958;2023-02-23T15:02:52;96708.69;;;14.68;63.32
9281;BME280;4679;47.966;7.958;2023-02-23T15:04:55;96715.16;;;14.62;63.36
9281;BME280;4679;47.966;7.958;2023-02-23T15:06:58;96705.31;;;14.53;63.50
9281;BME280;4679;47.966;7.958;2023-02-23T15:09:01;96715.25;;;14.47;63.47
9281;BME280;4679;47.966;7.958;2023-02-23T15:11:07;96709.41;;;14.45;63.78
9281;BME280;4679;47.966;7.958;2023-02-23T15:13:19;96713.41;;;14.37;63.22
9281;BME280;4679;47.966;7.958;2023-02-23T15:15:28;96708.59;;;14.39;63.72
9281;BME280;4679;47.966;7.958;2023-02-23T15:17:32;96711.25;;;14.39;63.26
9281;BME280;4679;47.966;7.958;2023-02-23T15:19:35;96711.03;;;14.36;63.25
9281;BME280;4679;47.966;7.958;2023-02-23T15:21:38;96709.19;;;14.31;63.53
9281;BME280;4679;47.966;7.958;2023-02-23T15:23:43;96706.81;;;14.30;63.61
9281;BME280;4679;47.966;7.958;2023-02-23T15:25:45;96707.00;;;14.38;63.04
9281;BME280;4679;47.966;7.958;2023-02-23T15:27:51;96708.16;;;14.27;63.50
9281;BME280;4679;47.966;7.958;2023-02-23T15:29:53;96706.09;;;14.19;63.39
9281;BME280;4679;47.966;7.958;2023-02-23T15:32:11;96700.50;;;14.16;63.38
9281;BME280;4679;47.966;7.958;2023-02-23T15:34:15;96701.06;;;14.07;63.50
9281;BME280;4679;47.966;7.958;2023-02-23T15:36:26;96700.84;;;13.99;63.35
9281;BME280;4679;47.966;7.958;2023-02-23T15:38:31;96701.41;;;13.96;63.16
9281;BME280;4679;47.966;7.958;2023-02-23T15:40:34;96700.06;;;13.93;63.91
9281;BME280;4679;47.966;7.958;2023-02-23T15:42:37;96702.50;;;13.90;63.42
9281;BME280;4679;47.966;7.958;2023-02-23T15:44:40;96696.13;;;13.86;63.05
9281;BME280;4679;47.966;7.958;2023-02-23T15:46:43;96698.25;;;13.84;63.01
9281;BME280;4679;47.966;7.958;2023-02-23T15:48:48;96695.06;;;13.87;62.83
9281;BME280;4679;47.966;7.958;2023-02-23T15:50:53;96699.06;;;13.89;62.72
9281;BME280;4679;47.966;7.958;2023-02-23T15:52:59;96699.59;;;13.86;62.82
9281;BME280;4679;47.966;7.958;2023-02-23T15:55:03;96695.59;;;13.84;62.69
9281;BME280;4679;47.966;7.958;2023-02-23T15:57:17;96700.66;;;13.85;62.56
9281;BME280;4679;47.966;7.958;2023-02-23T15:59:24;96700.13;;;13.83;62.40
9281;BME280;4679;47.966;7.958;2023-02-23T16:01:29;96699.91;;;13.75;62.59
9281;BME280;4679;47.966;7.958;2023-02-23T16:03:33;96698.59;;;13.67;62.74
9281;BME280;4679;47.966;7.958;2023-02-23T16:05:36;96694.94;;;13.53;63.15
9281;BME280;4679;47.966;7.958;2023-02-23T16:07:40;96698.97;;;13.40;63.17
9281;BME280;4679;47.966;7.958;2023-02-23T16:09:48;96697.66;;;13.32;63.60
9281;BME280;4679;47.966;7.958;2023-02-23T16:11:51;96700.88;;;13.24;63.44
9281;BME280;4679;47.966;7.958;2023-02-23T16:13:54;96697.97;;;13.11;63.87
9281;BME280;4679;47.966;7.958;2023-02-23T16:15:55;96699.81;;;13.00;64.32
9281;BME280;4679;47.966;7.958;2023-02-23T16:18:00;96691.59;;;12.96;64.92
9281;BME280;4679;47.966;7.958;2023-02-23T16:20:12;96690.78;;;12.91;64.54
9281;BME280;4679;47.966;7.958;2023-02-23T16:22:22;96692.41;;;12.92;65.18
9281;BME280;4679;47.966;7.958;2023-02-23T16:24:26;96696.13;;;12.86;65.22
9281;BME280;4679;47.966;7.958;2023-02-23T16:26:33;96694.00;;;12.73;65.20
9281;BME280;4679;47.966;7.958;2023-02-23T16:28:40;96692.94;;;12.63;65.86
9281;BME280;4679;47.966;7.958;2023-02-23T16:30:49;96697.75;;;12.61;65.72
9281;BME280;4679;47.966;7.958;2023-02-23T16:33:09;96698.28;;;12.63;66.17
9281;BME280;4679;47.966;7.958;2023-02-23T16:35:17;96696.13;;;12.60;66.21
9281;BME280;4679;47.966;7.958;2023-02-23T16:37:22;96690.81;;;12.55;65.99
9281;BME280;4679;47.966;7.958;2023-02-23T16:39:26;96698.28;;;12.48;66.91
9281;BME280;4679;47.966;7.958;2023-02-23T16:41:31;96699.84;;;12.44;66.52
9281;BME280;4679;47.966;7.958;2023-02-23T16:43:33;96698.78;;;12.40;66.46
9281;BME280;4679;47.966;7.958;2023-02-23T16:45:36;96704.13;;;12.35;67.52
9281;BME280;4679;47.966;7.958;2023-02-23T16:47:40;96705.16;;;12.29;67.17
9281;BME280;4679;47.966;7.958;2023-02-23T16:49:42;96713.38;;;12.22;67.60
9281;BME280;4679;47.966;7.958;2023-02-23T16:51:44;96706.75;;;12.15;67.87
9281;BME280;4679;47.966;7.958;2023-02-23T16:53:47;96715.25;;;12.07;68.35
9281;BME280;4679;47.966;7.958;2023-02-23T16:55:51;96715.75;;;11.98;67.83
9281;BME280;4679;47.966;7.958;2023-02-23T16:57:55;96717.88;;;11.91;68.21
9281;BME280;4679;47.966;7.958;2023-02-23T16:59:58;96710.41;;;11.88;68.01
9281;BME280;4679;47.966;7.958;2023-02-23T17:01:59;96721.28;;;11.82;68.59
9281;BME280;4679;47.966;7.958;2023-02-23T17:04:01;96725.00;;;11.76;68.90
9281;BME280;4679;47.966;7.958;2023-02-23T17:06:04;96719.63;;;11.71;69.43
9281;BME280;4679;47.966;7.958;2023-02-23T17:08:06;96724.09;;;11.65;69.31
9281;BME280;4679;47.966;7.958;2023-02-23T17:10:15;96721.97;;;11.57;68.80
9281;BME280;4679;47.966;7.958;2023-02-23T17:12:24;96725.63;;;11.51;69.41
9281;BME280;4679;47.966;7.958;2023-02-23T17:14:26;96728.81;;;11.43;70.17
9281;BME280;4679;47.966;7.958;2023-02-23T17:16:31;96731.38;;;11.33;70.26
9281;BME280;4679;47.966;7.958;2023-02-23T17:18:34;96736.34;;;11.19;70.45
9281;BME280;4679;47.966;7.958;2023-02-23T17:20:36;96739.50;;;11.11;69.60
9281;BME280;4679;47.966;7.958;2023-02-23T17:22:38;96735.44;;;10.98;70.87
9281;BME280;4679;47.966;7.958;2023-02-23T17:24:41;96740.41;;;10.89;70.86
9281;BME280;4679;47.966;7.958;2023-02-23T17:26:45;96739.00;;;10.77;71.38
9281;BME280;4679;47.966;7.958;2023-02-23T17:28:47;96738.06;;;10.61;71.04
9281;BME280;4679;47.966;7.958;2023-02-23T17:30:49;96744.38;;;10.55;71.85
9281;BME280;4679;47.966;7.958;2023-02-23T17:32:53;96743.97;;;10.41;71.84
9281;BME280;4679;47.966;7.958;2023-02-23T17:34:55;96747.41;;;10.37;71.69
9281;BME280;4679;47.966;7.958;2023-02-23T17:36:57;96745.25;;;10.34;71.87
9281;BME280;4679;47.966;7.958;2023-02-23T17:38:58;96738.03;;;10.29;71.84
9281;BME280;4679;47.966;7.958;2023-02-23T17:41:02;96734.00;;;10.21;72.33
9281;BME280;4679;47.966;7.958;2023-02-23T17:43:05;96737.56;;;10.10;72.43
9281;BME280;4679;47.966;7.958;2023-02-23T17:45:09;96742.75;;;10.00;72.43
9281;BME280;4679;47.966;7.958;2023-02-23T17:47:11;96749.56;;;9.91;73.29
9281;BME280;4679;47.966;7.958;2023-02-23T17:49:13;96751.09;;;9.87;72.28
9281;BME280;4679;47.966;7.958;2023-02-23T17:51:15;96755.03;;;9.84;72.28
9281;BME280;4679;47.966;7.958;2023-02-23T17:53:19;96754.72;;;9.81;72.63
9281;BME280;4679;47.966;7.958;2023-02-23T17:55:21;96757.09;;;9.77;73.27
9281;BME280;4679;47.966;7.958;2023-02-23T17:57:24;96766.25;;;9.70;72.68
9281;BME280;4679;47.966;7.958;2023-02-23T17:59:27;96763.03;;;9.68;73.35
9281;BME280;4679;47.966;7.958;2023-02-23T18:01:29;96767.22;;;9.64;72.82
9281;BME280;4679;47.966;7.958;2023-02-23T18:03:33;96770.88;;;9.58;73.50
9281;BME280;4679;47.966;7.958;2023-02-23T18:05:35;96776.09;;;9.52;73.86
9281;BME280;4679;47.966;7.958;2023-02-23T18:07:37;96773.13;;;9.49;73.18
9281;BME280;4679;47.966;7.958;2023-02-23T18:09:39;96775.72;;;9.44;73.23